sensor_id;sensor_type;location;lat;lon;timestamp;pressure;altitude;pressure_sealevel;temperature;humidity
76605;BME280;65496;50.978;16.998;2023-04-15T00:00:33;98733.28;;;22.18;41.78
76605;BME280;65496;50.978;16.998;2023-04-15T00:03:13;98747.06;;;22.29;41.98
76605;BME280;65496;50.978;16.998;2023-04-15T00:05:39;98755.72;;;22.31;41.69
76605;BME280;65496;50.978;16.998;2023-04-15T00:08:05;98749.44;;;22.27;41.78
76605;BME280;65496;50.978;16.998;2023-04-15T00:10:33;98747.84;;;22.29;41.75
76605;BME280;65496;50.978;16.998;2023-04-15T00:12:58;98751.78;;;22.28;41.85
76605;BME280;65496;50.978;16.998;2023-04-15T00:15:25;98751.00;;;22.28;41.72
76605;BME280;65496;50.978;16.998;2023-04-15T00:17:51;98754.16;;;22.26;41.77
76605;BME280;65496;50.978;16.998;2023-04-15T00:20:17;98747.06;;;22.29;41.66
76605;BME280;65496;50.978;16.998;2023-04-15T00:22:43;98740.75;;;22.25;41.83
76605;BME280;65496;50.978;16.998;2023-04-15T00:25:09;98746.25;;;22.28;41.74
76605;BME280;65496;50.978;16.998;2023-04-15T00:27:36;98744.28;;;22.29;41.67
76605;BME280;65496;50.978;16.998;2023-04-15T00:30:02;98751.00;;;22.28;41.78
76605;BME280;65496;50.978;16.998;2023-04-15T00:32:28;98740.38;;;22.23;41.57
76605;BME280;65496;50.978;16.998;2023-04-15T00:34:55;98746.28;;;22.25;41.58
76605;BME280;65496;50.978;16.998;2023-04-15T00:37:20;98741.19;;;22.20;41.54
76605;BME280;65496;50.978;16.998;2023-04-15T00:39:47;98746.25;;;22.28;41.61
76605;BME280;65496;50.978;16.998;2023-04-15T00:42:13;98752.97;;;22.27;41.67
76605;BME280;65496;50.978;16.998;2023-04-15T00:44:39;98747.47;;;22.27;41.65
76605;BME280;65496;50.978;16.998;2023-04-15T00:47:05;98749.44;;;22.27;41.65
76605;BME280;65496;50.978;16.998;2023-04-15T00:49:32;98756.91;;;22.26;41.65
76605;BME280;65496;50.978;16.998;2023-04-15T00:51:58;98757.72;;;22.27;41.67
76605;BME280;65496;50.978;16.998;2023-04-15T00:54:24;98754.94;;;22.27;41.44
76605;BME280;65496;50.978;16.998;2023-04-15T00:56:51;98744.72;;;22.24;41.37
76605;BME280;65496;50.978;16.998;2023-04-15T00:59:17;98764.41;;;22.26;41.66
76605;BME280;65496;50.978;16.998;2023-04-15T01:01:44;98754.16;;;22.26;41.55
76605;BME280;65496;50.978;16.998;2023-04-15T01:04:10;98753.38;;;22.26;41.51
76605;BME280;65496;50.978;16.998;2023-04-15T01:06:36;98759.69;;;22.23;41.32
76605;BME280;65496;50.978;16.998;2023-04-15T01:09:03;98758.09;;;22.25;41.65
76605;BME280;65496;50.978;16.998;2023-04-15T01:11:29;98766.38;;;22.25;41.73
76605;BME280;65496;50.978;16.998;2023-04-15T01:13:58;98760.84;;;22.25;41.52
76605;BME280;65496;50.978;16.998;2023-04-15T01:16:23;98771.88;;;22.25;41.52
76605;BME280;65496;50.978;16.998;2023-04-15T01:18:50;98754.97;;;22.23;41.52
76605;BME280;65496;50.978;16.998;2023-04-15T01:21:17;98757.31;;;22.21;41.41
76605;BME280;65496;50.978;16.998;2023-04-15T01:23:46;98748.66;;;22.19;41.44
76605;BME280;65496;50.978;16.998;2023-04-15T01:26:12;98769.13;;;22.25;41.45
76605;BME280;65496;50.978;16.998;2023-04-15T01:28:38;98758.09;;;22.25;41.42
76605;BME280;65496;50.978;16.998;2023-04-15T01:31:09;98759.25;;;22.24;41.56
76605;BME280;65496;50.978;16.998;2023-04-15T01:33:36;98739.19;;;22.13;41.54
76605;BME280;65496;50.978;16.998;2023-04-15T01:36:04;98767.53;;;22.24;41.55
76605;BME280;65496;50.978;16.998;2023-04-15T01:38:31;98770.28;;;22.24;41.35
76605;BME280;65496;50.978;16.998;2023-04-15T01:40:57;98766.78;;;22.24;41.40
76605;BME280;65496;50.978;16.998;2023-04-15T01:43:27;98767.16;;;22.19;41.79
76605;BME280;65496;50.978;16.998;2023-04-15T01:45:53;98781.31;;;22.24;41.51
76605;BME280;65496;50.978;16.998;2023-04-15T01:48:19;98779.34;;;22.21;41.30
76605;BME280;65496;50.978;16.998;2023-04-15T01:50:46;98786.84;;;22.24;41.51
76605;BME280;65496;50.978;16.998;2023-04-15T01:53:12;98771.50;;;22.23;41.40
76605;BME280;65496;50.978;16.998;2023-04-15T01:55:37;98775.81;;;22.24;41.24
76605;BME280;65496;50.978;16.998;2023-04-15T01:58:04;98775.81;;;22.24;41.31
76605;BME280;65496;50.978;16.998;2023-04-15T02:00:29;98766.78;;;22.24;41.38
76605;BME280;65496;50.978;16.998;2023-04-15T02:02:57;98769.53;;;22.24;41.49
76605;BME280;65496;50.978;16.998;2023-04-15T02:05:24;98771.09;;;22.25;41.23
76605;BME280;65496;50.978;16.998;2023-04-15T02:07:50;98767.94;;;22.23;41.40
76605;BME280;65496;50.978;16.998;2023-04-15T02:10:16;98763.22;;;22.23;41.42
76605;BME280;65496;50.978;16.998;2023-04-15T02:12:43;98773.47;;;22.23;41.34
76605;BME280;65496;50.978;16.998;2023-04-15T02:15:09;98772.66;;;22.22;41.31
76605;BME280;65496;50.978;16.998;2023-04-15T02:17:36;98775.44;;;22.22;41.18
76605;BME280;65496;50.978;16.998;2023-04-15T02:20:03;98780.16;;;22.22;41.40
76605;BME280;65496;50.978;16.998;2023-04-15T02:22:33;98780.16;;;22.22;41.67
76605;BME280;65496;50.978;16.998;2023-04-15T02:24:59;98785.66;;;22.22;41.05
76605;BME280;65496;50.978;16.998;2023-04-15T02:27:25;98781.34;;;22.17;41.34
76605;BME280;65496;50.978;16.998;2023-04-15T02:29:53;98788.41;;;22.22;41.00
76605;BME280;65496;50.978;16.998;2023-04-15T02:32:19;98793.56;;;22.23;41.14
76605;BME280;65496;50.978;16.998;2023-04-15T02:34:46;98793.94;;;22.22;41.14
76605;BME280;65496;50.978;16.998;2023-04-15T02:37:13;98788.06;;;22.16;41.20
76605;BME280;65496;50.978;16.998;2023-04-15T02:39:39;98802.22;;;22.22;41.04
76605;BME280;65496;50.978;16.998;2023-04-15T02:42:05;98799.88;;;22.20;41.40
76605;BME280;65496;50.978;16.998;2023-04-15T02:44:32;98807.72;;;22.22;41.18
76605;BME280;65496;50.978;16.998;2023-04-15T02:46:59;98807.72;;;22.22;41.09
76605;BME280;65496;50.978;16.998;2023-04-15T02:49:25;98817.97;;;22.21;41.17
76605;BME280;65496;50.978;16.998;2023-04-15T02:51:51;98812.84;;;22.20;41.09
76605;BME280;65496;50.978;16.998;2023-04-15T02:54:17;98821.13;;;22.20;40.96
76605;BME280;65496;50.978;16.998;2023-04-15T02:56:44;98813.66;;;22.20;40.87
76605;BME280;65496;50.978;16.998;2023-04-15T02:59:11;98832.94;;;22.20;41.12
76605;BME280;65496;50.978;16.998;2023-04-15T03:01:38;98807.31;;;22.06;40.73
76605;BME280;65496;50.978;16.998;2023-04-15T03:04:03;98829.78;;;22.15;40.91
76605;BME280;65496;50.978;16.998;2023-04-15T03:06:30;98851.47;;;22.16;41.17
76605;BME280;65496;50.978;16.998;2023-04-15T03:08:56;98864.44;;;22.19;41.00
76605;BME280;65496;50.978;16.998;2023-04-15T03:11:22;98868.78;;;22.20;40.78
76605;BME280;65496;50.978;16.998;2023-04-15T03:13:48;98856.19;;;22.19;40.67
76605;BME280;65496;50.978;16.998;2023-04-15T03:16:14;98862.88;;;22.18;40.87
76605;BME280;65496;50.978;16.998;2023-04-15T03:18:40;98881.00;;;22.19;40.92
76605;BME280;65496;50.978;16.998;2023-04-15T03:21:06;98877.06;;;22.20;40.72
76605;BME280;65496;50.978;16.998;2023-04-15T03:23:32;98877.44;;;22.19;40.64
76605;BME280;65496;50.978;16.998;2023-04-15T03:26:01;98872.31;;;22.14;40.93
76605;BME280;65496;50.978;16.998;2023-04-15T03:28:27;98874.69;;;22.19;40.73
76605;BME280;65496;50.978;16.998;2023-04-15T03:30:55;98878.63;;;22.18;40.70
76605;BME280;65496;50.978;16.998;2023-04-15T03:33:21;98873.09;;;22.18;40.78
76605;BME280;65496;50.978;16.998;2023-04-15T03:35:48;98877.44;;;22.19;40.78
76605;BME280;65496;50.978;16.998;2023-04-15T03:38:15;98878.63;;;22.18;40.79
76605;BME280;65496;50.978;16.998;2023-04-15T03:40:41;98893.19;;;22.18;40.53
76605;BME280;65496;50.978;16.998;2023-04-15T03:43:06;98908.16;;;22.17;40.57
76605;BME280;65496;50.978;16.998;2023-04-15T03:45:33;98907.75;;;22.19;40.58
76605;BME280;65496;50.978;16.998;2023-04-15T03:47:58;98915.63;;;22.17;40.45
76605;BME280;65496;50.978;16.998;2023-04-15T03:50:25;98922.72;;;22.18;40.64
76605;BME280;65496;50.978;16.998;2023-04-15T03:52:51;98923.13;;;22.16;40.50
76605;BME280;65496;50.978;16.998;2023-04-15T03:55:17;98930.19;;;22.17;40.53
76605;BME280;65496;50.978;16.998;2023-04-15T03:57:43;98918.00;;;22.11;40.39
76605;BME280;65496;50.978;16.998;2023-04-15T04:00:09;98927.84;;;22.16;40.33
76605;BME280;65496;50.978;16.998;2023-04-15T04:02:35;98927.06;;;22.15;40.27
76605;BME280;65496;50.978;16.998;2023-04-15T04:05:01;98906.53;;;21.99;40.22
76605;BME280;65496;50.978;16.998;2023-04-15T04:07:27;98930.63;;;22.16;40.38
76605;BME280;65496;50.978;16.998;2023-04-15T04:09:53;98937.28;;;22.15;40.15
76605;BME280;65496;50.978;16.998;2023-04-15T04:12:19;98934.53;;;22.15;40.04
76605;BME280;65496;50.978;16.998;2023-04-15T04:14:45;98929.81;;;22.15;40.20
76605;BME280;65496;50.978;16.998;2023-04-15T04:17:11;98940.06;;;22.15;39.96
76605;BME280;65496;50.978;16.998;2023-04-15T04:19:37;98939.25;;;22.14;39.89
76605;BME280;65496;50.978;16.998;2023-04-15T04:22:03;98956.59;;;22.15;40.15
76605;BME280;65496;50.978;16.998;2023-04-15T04:24:30;98957.38;;;22.12;39.88
76605;BME280;65496;50.978;16.998;2023-04-15T04:26:56;98966.44;;;22.12;39.88
76605;BME280;65496;50.978;16.998;2023-04-15T04:29:22;98962.09;;;22.11;39.87
76605;BME280;65496;50.978;16.998;2023-04-15T04:31:48;98961.31;;;22.11;39.85
76605;BME280;65496;50.978;16.998;2023-04-15T04:34:15;98966.44;;;22.12;39.79
76605;BME280;65496;50.978;16.998;2023-04-15T04:36:41;98971.97;;;22.12;39.91
76605;BME280;65496;50.978;16.998;2023-04-15T04:39:07;98970.75;;;22.10;39.89
76605;BME280;65496;50.978;16.998;2023-04-15T04:41:33;98970.75;;;22.10;39.85
76605;BME280;65496;50.978;16.998;2023-04-15T04:43:59;98982.19;;;22.12;39.82
76605;BME280;65496;50.978;16.998;2023-04-15T04:46:25;98990.47;;;22.12;39.73
76605;BME280;65496;50.978;16.998;2023-04-15T04:48:51;98991.25;;;22.12;39.92
76605;BME280;65496;50.978;16.998;2023-04-15T04:51:17;98991.63;;;22.11;39.71
76605;BME280;65496;50.978;16.998;2023-04-15T04:53:44;98974.28;;;22.00;39.89
76605;BME280;65496;50.978;16.998;2023-04-15T04:56:09;98992.44;;;22.11;39.58
76605;BME280;65496;50.978;16.998;2023-04-15T04:58:36;98998.72;;;22.12;39.56
76605;BME280;65496;50.978;16.998;2023-04-15T05:01:02;99000.28;;;22.13;39.65
76605;BME280;65496;50.978;16.998;2023-04-15T05:03:29;98998.31;;;22.13;39.76
76605;BME280;65496;50.978;16.998;2023-04-15T05:05:55;99003.84;;;22.13;39.76
76605;BME280;65496;50.978;16.998;2023-04-15T05:08:21;99003.03;;;22.13;39.70
76605;BME280;65496;50.978;16.998;2023-04-15T05:10:47;99005.81;;;22.13;39.91
76605;BME280;65496;50.978;16.998;2023-04-15T05:13:13;98997.53;;;22.09;39.67
76605;BME280;65496;50.978;16.998;2023-04-15T05:15:39;99014.50;;;22.15;39.64
76605;BME280;65496;50.978;16.998;2023-04-15T05:18:06;99012.91;;;22.14;39.94
76605;BME280;65496;50.978;16.998;2023-04-15T05:20:32;99008.16;;;22.11;39.56
76605;BME280;65496;50.978;16.998;2023-04-15T05:22:58;99015.28;;;22.15;39.62
76605;BME280;65496;50.978;16.998;2023-04-15T05:25:24;99014.88;;;22.13;39.77
76605;BME280;65496;50.978;16.998;2023-04-15T05:27:50;99021.19;;;22.17;39.61
76605;BME280;65496;50.978;16.998;2023-04-15T05:30:16;99025.13;;;22.16;39.88
76605;BME280;65496;50.978;16.998;2023-04-15T05:32:42;99031.03;;;22.18;39.81
76605;BME280;65496;50.978;16.998;2023-04-15T05:35:08;99033.78;;;22.18;39.59
76605;BME280;65496;50.978;16.998;2023-04-15T05:37:34;99032.63;;;22.19;39.54
76605;BME280;65496;50.978;16.998;2023-04-15T05:40:00;99018.41;;;22.10;39.65
76605;BME280;65496;50.978;16.998;2023-04-15T05:42:27;99035.38;;;22.19;39.64
76605;BME280;65496;50.978;16.998;2023-04-15T05:44:52;99042.47;;;22.20;39.65
76605;BME280;65496;50.978;16.998;2023-04-15T05:47:19;99041.28;;;22.18;39.67
76605;BME280;65496;50.978;16.998;2023-04-15T05:49:44;99049.56;;;22.21;39.57
76605;BME280;65496;50.978;16.998;2023-04-15T05:52:11;99051.13;;;22.22;39.69
76605;BME280;65496;50.978;16.998;2023-04-15T05:54:37;99050.34;;;22.22;39.69
76605;BME280;65496;50.978;16.998;2023-04-15T05:57:03;99049.97;;;22.23;39.60
76605;BME280;65496;50.978;16.998;2023-04-15T05:59:29;99066.09;;;22.25;39.57
76605;BME280;65496;50.978;16.998;2023-04-15T06:01:55;99064.94;;;22.26;39.74
76605;BME280;65496;50.978;16.998;2023-04-15T06:04:21;99066.09;;;22.25;39.49
76605;BME280;65496;50.978;16.998;2023-04-15T06:06:47;99073.22;;;22.26;39.59
76605;BME280;65496;50.978;16.998;2023-04-15T06:09:13;99067.69;;;22.26;39.38
76605;BME280;65496;50.978;16.998;2023-04-15T06:11:39;99058.25;;;22.23;39.35
76605;BME280;65496;50.978;16.998;2023-04-15T06:14:05;99064.13;;;22.22;39.42
76605;BME280;65496;50.978;16.998;2023-04-15T06:16:32;99074.78;;;22.27;39.35
76605;BME280;65496;50.978;16.998;2023-04-15T06:18:58;99079.13;;;22.28;39.15
76605;BME280;65496;50.978;16.998;2023-04-15T06:21:24;99074.78;;;22.27;39.49
76605;BME280;65496;50.978;16.998;2023-04-15T06:23:50;99075.19;;;22.29;39.52
76605;BME280;65496;50.978;16.998;2023-04-15T06:26:16;99079.91;;;22.28;39.50
76605;BME280;65496;50.978;16.998;2023-04-15T06:28:42;99082.28;;;22.30;39.53
76605;BME280;65496;50.978;16.998;2023-04-15T06:31:08;99076.75;;;22.30;39.37
76605;BME280;65496;50.978;16.998;2023-04-15T06:33:34;99081.13;;;22.31;39.26
76605;BME280;65496;50.978;16.998;2023-04-15T06:36:00;99080.31;;;22.30;39.27
76605;BME280;65496;50.978;16.998;2023-04-15T06:38:26;99081.13;;;22.31;39.28
76605;BME280;65496;50.978;16.998;2023-04-15T06:40:52;99077.94;;;22.29;38.89
76605;BME280;65496;50.978;16.998;2023-04-15T06:43:18;99074.78;;;22.27;39.08
76605;BME280;65496;50.978;16.998;2023-04-15T06:45:44;99079.53;;;22.30;38.89
76605;BME280;65496;50.978;16.998;2023-04-15T06:48:10;99088.19;;;22.32;39.27
76605;BME280;65496;50.978;16.998;2023-04-15T06:50:37;99095.28;;;22.33;38.79
76605;BME280;65496;50.978;16.998;2023-04-15T06:53:03;99082.28;;;22.26;39.27
76605;BME280;65496;50.978;16.998;2023-04-15T06:55:29;99098.47;;;22.35;39.10
76605;BME280;65496;50.978;16.998;2023-04-15T06:57:56;99097.25;;;22.36;39.29
76605;BME280;65496;50.978;16.998;2023-04-15T07:00:22;99097.25;;;22.36;39.30
76605;BME280;65496;50.978;16.998;2023-04-15T07:02:48;99101.59;;;22.37;39.38
76605;BME280;65496;50.978;16.998;2023-04-15T07:05:15;99097.69;;;22.38;39.25
76605;BME280;65496;50.978;16.998;2023-04-15T07:07:41;99098.06;;;22.37;39.48
76605;BME280;65496;50.978;16.998;2023-04-15T07:10:08;99107.13;;;22.41;39.48
76605;BME280;65496;50.978;16.998;2023-04-15T07:12:34;99111.47;;;22.42;39.52
76605;BME280;65496;50.978;16.998;2023-04-15T07:15:00;99101.22;;;22.39;39.48
76605;BME280;65496;50.978;16.998;2023-04-15T07:17:26;99108.72;;;22.45;39.42
76605;BME280;65496;50.978;16.998;2023-04-15T07:19:55;99105.97;;;22.45;39.33
76605;BME280;65496;50.978;16.998;2023-04-15T07:22:24;99107.56;;;22.46;39.37
76605;BME280;65496;50.978;16.998;2023-04-15T07:24:51;99111.13;;;22.47;39.39
76605;BME280;65496;50.978;16.998;2023-04-15T07:27:16;99117.00;;;22.49;38.95
76605;BME280;65496;50.978;16.998;2023-04-15T07:29:42;99125.28;;;22.49;39.32
76605;BME280;65496;50.978;16.998;2023-04-15T07:32:08;99123.31;;;22.46;38.90
76605;BME280;65496;50.978;16.998;2023-04-15T07:34:35;99122.16;;;22.50;39.01
76605;BME280;65496;50.978;16.998;2023-04-15T07:37:02;99129.63;;;22.50;39.35
76605;BME280;65496;50.978;16.998;2023-04-15T07:39:28;99136.75;;;22.51;38.89
76605;BME280;65496;50.978;16.998;2023-04-15T07:41:54;99130.03;;;22.52;39.06
76605;BME280;65496;50.978;16.998;2023-04-15T07:44:21;99126.09;;;22.53;39.09
76605;BME280;65496;50.978;16.998;2023-04-15T07:46:47;99127.69;;;22.54;39.02
76605;BME280;65496;50.978;16.998;2023-04-15T07:49:13;99125.28;;;22.49;38.47
76605;BME280;65496;50.978;16.998;2023-04-15T07:51:38;99135.53;;;22.52;38.82
76605;BME280;65496;50.978;16.998;2023-04-15T07:54:05;99138.28;;;22.52;39.21
76605;BME280;65496;50.978;16.998;2023-04-15T07:56:30;99151.72;;;22.57;39.39
76605;BME280;65496;50.978;16.998;2023-04-15T07:58:57;99142.66;;;22.56;39.14
76605;BME280;65496;50.978;16.998;2023-04-15T08:01:23;99132.41;;;22.57;39.28
76605;BME280;65496;50.978;16.998;2023-04-15T08:03:49;99137.94;;;22.57;38.83
76605;BME280;65496;50.978;16.998;2023-04-15T08:06:16;99140.69;;;22.57;38.69
76605;BME280;65496;50.978;16.998;2023-04-15T08:08:42;99147.78;;;22.58;38.53
76605;BME280;65496;50.978;16.998;2023-04-15T08:11:08;99152.94;;;22.63;37.76
76605;BME280;65496;50.978;16.998;2023-04-15T08:13:34;99156.88;;;22.65;37.58
76605;BME280;65496;50.978;16.998;2023-04-15T08:16:20;99157.72;;;22.69;37.52
76605;BME280;65496;50.978;16.998;2023-04-15T08:18:48;99143.47;;;22.67;37.04
76605;BME280;65496;50.978;16.998;2023-04-15T08:21:16;99155.34;;;22.78;35.79
76605;BME280;65496;50.978;16.998;2023-04-15T08:23:43;99161.66;;;22.79;35.96
76605;BME280;65496;50.978;16.998;2023-04-15T08:26:09;99167.63;;;22.85;35.94
76605;BME280;65496;50.978;16.998;2023-04-15T08:28:38;99165.66;;;22.89;36.28
76605;BME280;65496;50.978;16.998;2023-04-15T08:31:04;99156.97;;;22.87;35.77
76605;BME280;65496;50.978;16.998;2023-04-15T08:33:30;99154.22;;;22.90;35.76
76605;BME280;65496;50.978;16.998;2023-04-15T08:35:56;99134.88;;;22.76;35.74
76605;BME280;65496;50.978;16.998;2023-04-15T08:38:23;99161.31;;;22.98;35.79
76605;BME280;65496;50.978;16.998;2023-04-15T08:40:49;99171.19;;;23.03;35.74
76605;BME280;65496;50.978;16.998;2023-04-15T08:43:27;99176.72;;;22.99;35.05
76605;BME280;65496;50.978;16.998;2023-04-15T08:45:55;99169.59;;;22.98;34.37
76605;BME280;65496;50.978;16.998;2023-04-15T08:48:27;99169.59;;;22.98;34.51
76605;BME280;65496;50.978;16.998;2023-04-15T08:50:54;99178.69;;;23.02;34.98
76605;BME280;65496;50.978;16.998;2023-04-15T08:53:20;99179.09;;;23.04;34.84
76605;BME280;65496;50.978;16.998;2023-04-15T08:55:50;99181.88;;;23.08;34.86
76605;BME280;65496;50.978;16.998;2023-04-15T08:58:18;99179.09;;;23.11;34.95
76605;BME280;65496;50.978;16.998;2023-04-15T09:00:44;99181.06;;;23.14;34.97
76605;BME280;65496;50.978;16.998;2023-04-15T09:03:10;99180.69;;;23.19;34.63
76605;BME280;65496;50.978;16.998;2023-04-15T09:05:37;99179.53;;;23.20;34.78
76605;BME280;65496;50.978;16.998;2023-04-15T09:08:04;99183.84;;;23.25;35.05
76605;BME280;65496;50.978;16.998;2023-04-15T09:10:31;99182.28;;;23.27;35.15
76605;BME280;65496;50.978;16.998;2023-04-15T09:12:58;99180.31;;;23.28;35.05
76605;BME280;65496;50.978;16.998;2023-04-15T09:15:24;99175.19;;;23.26;34.98
76605;BME280;65496;50.978;16.998;2023-04-15T09:17:55;99183.09;;;23.32;35.07
76605;BME280;65496;50.978;16.998;2023-04-15T09:20:21;99185.06;;;23.31;34.83
76605;BME280;65496;50.978;16.998;2023-04-15T09:22:48;99191.75;;;23.37;34.96
76605;BME280;65496;50.978;16.998;2023-04-15T09:27:51;99170.44;;;23.23;34.71
76605;BME280;65496;50.978;16.998;2023-04-15T09:30:18;99194.13;;;23.39;34.84
76605;BME280;65496;50.978;16.998;2023-04-15T09:32:51;99192.56;;;23.38;34.61
76605;BME280;65496;50.978;16.998;2023-04-15T09:35:19;99192.16;;;23.36;34.73
76605;BME280;65496;50.978;16.998;2023-04-15T09:37:45;99189.78;;;23.38;34.51
76605;BME280;65496;50.978;16.998;2023-04-15T09:40:12;99187.03;;;23.38;34.74
76605;BME280;65496;50.978;16.998;2023-04-15T09:42:54;99198.88;;;23.42;34.48
76605;BME280;65496;50.978;16.998;2023-04-15T09:45:21;99196.94;;;23.42;34.40
76605;BME280;65496;50.978;16.998;2023-04-15T09:47:47;99206.41;;;23.45;34.52
76605;BME280;65496;50.978;16.998;2023-04-15T09:50:15;99194.53;;;23.41;34.29
76605;BME280;65496;50.978;16.998;2023-04-15T09:52:42;99202.47;;;23.46;34.41
76605;BME280;65496;50.978;16.998;2023-04-15T09:55:09;99211.53;;;23.50;34.30
76605;BME280;65496;50.978;16.998;2023-04-15T09:57:36;99214.69;;;23.52;34.08
76605;BME280;65496;50.978;16.998;2023-04-15T10:00:03;99202.47;;;23.42;34.26
76605;BME280;65496;50.978;16.998;2023-04-15T10:02:30;99215.47;;;23.52;34.05
76605;BME280;65496;50.978;16.998;2023-04-15T10:04:57;99204.44;;;23.49;33.92
76605;BME280;65496;50.978;16.998;2023-04-15T10:07:24;99215.09;;;23.54;33.86
76605;BME280;65496;50.978;16.998;2023-04-15T10:09:50;99217.06;;;23.57;34.07
76605;BME280;65496;50.978;16.998;2023-04-15T10:12:18;99209.94;;;23.52;34.12
76605;BME280;65496;50.978;16.998;2023-04-15T10:14:47;99213.13;;;23.54;33.91
76605;BME280;65496;50.978;16.998;2023-04-15T10:17:17;99216.28;;;23.53;34.01
76605;BME280;65496;50.978;16.998;2023-04-15T10:19:43;99217.06;;;23.57;33.79
76605;BME280;65496;50.978;16.998;2023-04-15T10:22:13;99210.75;;;23.49;33.99
76605;BME280;65496;50.978;16.998;2023-04-15T10:24:39;99211.94;;;23.52;33.96
76605;BME280;65496;50.978;16.998;2023-04-15T10:27:06;99212.72;;;23.49;34.17
76605;BME280;65496;50.978;16.998;2023-04-15T10:29:33;99222.59;;;23.50;33.92
76605;BME280;65496;50.978;16.998;2023-04-15T10:32:00;99217.84;;;23.47;33.82
76605;BME280;65496;50.978;16.998;2023-04-15T10:34:27;99225.34;;;23.53;33.78
76605;BME280;65496;50.978;16.998;2023-04-15T10:36:55;99222.59;;;23.53;33.81
76605;BME280;65496;50.978;16.998;2023-04-15T10:39:42;99221.41;;;23.54;33.56
76605;BME280;65496;50.978;16.998;2023-04-15T10:42:10;99224.97;;;23.55;33.56
76605;BME280;65496;50.978;16.998;2023-04-15T10:44:38;99226.16;;;23.54;33.54
76605;BME280;65496;50.978;16.998;2023-04-15T10:47:14;99226.53;;;23.56;33.57
76605;BME280;65496;50.978;16.998;2023-04-15T10:50:00;99216.69;;;23.51;33.64
76605;BME280;65496;50.978;16.998;2023-04-15T10:52:28;99223.78;;;23.56;33.61
76605;BME280;65496;50.978;16.998;2023-04-15T10:55:13;99224.19;;;23.58;33.84
76605;BME280;65496;50.978;16.998;2023-04-15T10:57:41;99224.19;;;23.58;33.67
76605;BME280;65496;50.978;16.998;2023-04-15T11:00:09;99228.13;;;23.57;33.59
76605;BME280;65496;50.978;16.998;2023-04-15T11:05:15;99234.81;;;23.56;33.60
76605;BME280;65496;50.978;16.998;2023-04-15T11:07:54;99225.75;;;23.52;33.40
76605;BME280;65496;50.978;16.998;2023-04-15T11:13:04;99225.78;;;23.59;33.31
76605;BME280;65496;50.978;16.998;2023-04-15T11:15:38;99237.19;;;23.64;33.00
76605;BME280;65496;50.978;16.998;2023-04-15T11:18:08;99240.38;;;23.66;32.93
76605;BME280;65496;50.978;16.998;2023-04-15T11:20:35;99234.44;;;23.68;32.71
76605;BME280;65496;50.978;16.998;2023-04-15T11:23:02;99239.19;;;23.67;32.87
76605;BME280;65496;50.978;16.998;2023-04-15T11:25:29;99240.38;;;23.70;32.79
76605;BME280;65496;50.978;16.998;2023-04-15T11:27:56;99238.41;;;23.70;32.85
76605;BME280;65496;50.978;16.998;2023-04-15T11:30:24;99230.13;;;23.67;32.84
76605;BME280;65496;50.978;16.998;2023-04-15T11:32:51;99225.34;;;23.67;32.64
76605;BME280;65496;50.978;16.998;2023-04-15T11:35:17;99242.34;;;23.73;32.76
76605;BME280;65496;50.978;16.998;2023-04-15T11:37:44;99240.75;;;23.68;32.58
76605;BME280;65496;50.978;16.998;2023-04-15T11:40:11;99233.25;;;23.65;32.53
76605;BME280;65496;50.978;16.998;2023-04-15T11:42:38;99234.06;;;23.66;32.40
76605;BME280;65496;50.978;16.998;2023-04-15T11:45:12;99242.72;;;23.68;32.76
76605;BME280;65496;50.978;16.998;2023-04-15T11:47:40;99239.19;;;23.64;32.53
76605;BME280;65496;50.978;16.998;2023-04-15T11:50:22;99244.31;;;23.72;32.51
76605;BME280;65496;50.978;16.998;2023-04-15T11:53:02;99254.56;;;23.72;32.43
76605;BME280;65496;50.978;16.998;2023-04-15T11:55:29;99254.19;;;23.70;32.56
76605;BME280;65496;50.978;16.998;2023-04-15T12:00:36;99263.66;;;23.72;32.36
76605;BME280;65496;50.978;16.998;2023-04-15T12:03:13;99256.16;;;23.66;32.21
76605;BME280;65496;50.978;16.998;2023-04-15T12:14:07;99268.41;;;23.76;31.73
76605;BME280;65496;50.978;16.998;2023-04-15T12:16:44;99274.72;;;23.76;31.87
76605;BME280;65496;50.978;16.998;2023-04-15T12:19:16;99266.84;;;23.78;31.78
76605;BME280;65496;50.978;16.998;2023-04-15T12:21:47;99267.22;;;23.77;31.95
76605;BME280;65496;50.978;16.998;2023-04-15T12:24:13;99273.94;;;23.79;31.70
76605;BME280;65496;50.978;16.998;2023-04-15T12:26:43;99279.44;;;23.79;31.78
76605;BME280;65496;50.978;16.998;2023-04-15T12:29:11;99274.34;;;23.78;31.64
76605;BME280;65496;50.978;16.998;2023-04-15T12:31:52;99283.44;;;23.78;31.70
76605;BME280;65496;50.978;16.998;2023-04-15T12:34:33;99285.78;;;23.76;31.62
76605;BME280;65496;50.978;16.998;2023-04-15T12:37:02;99280.25;;;23.76;31.38
76605;BME280;65496;50.978;16.998;2023-04-15T12:39:30;99287.38;;;23.77;31.53
76605;BME280;65496;50.978;16.998;2023-04-15T12:41:58;99288.94;;;23.78;31.60
76605;BME280;65496;50.978;16.998;2023-04-15T12:44:25;99276.31;;;23.77;31.46
76605;BME280;65496;50.978;16.998;2023-04-15T12:46:51;99281.03;;;23.80;31.39
76605;BME280;65496;50.978;16.998;2023-04-15T12:49:19;99281.44;;;23.82;31.29
76605;BME280;65496;50.978;16.998;2023-04-15T12:51:49;99269.19;;;23.80;31.00
76605;BME280;65496;50.978;16.998;2023-04-15T12:54:16;99277.91;;;23.85;31.30
76605;BME280;65496;50.978;16.998;2023-04-15T12:56:43;99273.94;;;23.86;30.94
76605;BME280;65496;50.978;16.998;2023-04-15T12:59:09;99265.25;;;23.81;31.01
76605;BME280;65496;50.978;16.998;2023-04-15T13:01:35;99268.41;;;23.86;30.87
76605;BME280;65496;50.978;16.998;2023-04-15T13:04:01;99267.63;;;23.86;31.04
76605;BME280;65496;50.978;16.998;2023-04-15T13:06:27;99276.31;;;23.88;30.94
76605;BME280;65496;50.978;16.998;2023-04-15T13:08:54;99280.28;;;23.90;31.02